WAT3432 EGKK-LOWW
Flight info
| Callsign | WAT3432 |
|---|---|
| Flight time | N/A |
| Altitude | 45000 |
| Route | MIMFO Y312 DVR UL9 KONAN DCT KOK DCT SPI DCT GUBAX DCT BARSU DCT EKSOS DCT LULAR DCT RUDAP DCT BUDEX BUDEX2W |
| Aircraft | C700/M-SBDGHM1RWXY/LB2 |
Departure
| Time | 2026-04-16 03:12 |
|---|---|
| Airport | London Gatwick Airport (EGKK) |
Arrival
| Time | N/A |
|---|---|
| Airport | Vienna International Airport (LOWW) |
| Time | Latitude | Longitude | Altitude | Speed | Heading |
|---|---|---|---|---|---|
| 2026-04-16 02:40 | 51.15322 | -0.17877 | 199 ft | 0 kts | 347° |
| 2026-04-16 03:03 | 51.15321 | -0.17877 | 199 ft | 2 kts | 347° |
| 2026-04-16 03:03 | 51.15296 | -0.17868 | 199 ft | 4 kts | 347° |
| 2026-04-16 03:03 | 51.15271 | -0.17861 | 205 ft | 4 kts | 2° |
| 2026-04-16 03:04 | 51.15248 | -0.17872 | 199 ft | 4 kts | 51° |
| 2026-04-16 03:04 | 51.15239 | -0.17900 | 202 ft | 3 kts | 77° |
| 2026-04-16 03:04 | 51.15236 | -0.17921 | 199 ft | 0 kts | 77° |
| 2026-04-16 03:08 | 51.15238 | -0.17907 | 201 ft | 3 kts | 77° |
| 2026-04-16 03:08 | 51.15253 | -0.17831 | 199 ft | 11 kts | 64° |
| 2026-04-16 03:08 | 51.15272 | -0.17692 | 199 ft | 14 kts | 80° |
| 2026-04-16 03:08 | 51.15295 | -0.17502 | 202 ft | 18 kts | 79° |
| 2026-04-16 03:09 | 51.15298 | -0.17407 | 199 ft | 9 kts | 115° |
| 2026-04-16 03:09 | 51.15237 | -0.17318 | 206 ft | 14 kts | 136° |
| 2026-04-16 03:09 | 51.15175 | -0.17238 | 206 ft | 0 kts | 146° |
| 2026-04-16 03:11 | 51.15149 | -0.17214 | 200 ft | 10 kts | 161° |
| 2026-04-16 03:11 | 51.15073 | -0.17312 | 205 ft | 22 kts | 236° |
| 2026-04-16 03:11 | 51.14998 | -0.17662 | 210 ft | 52 kts | 253° |
| 2026-04-16 03:12 | 51.14884 | -0.18517 | 207 ft | 114 kts | 257° |
| 2026-04-16 03:12 | 51.14715 | -0.20064 | 623 ft | 160 kts | 262° |
| 2026-04-16 03:12 | 51.14564 | -0.21973 | 1588 ft | 190 kts | 259° |
| 2026-04-16 03:12 | 51.14315 | -0.24273 | 2167 ft | 214 kts | 255° |
| 2026-04-16 03:13 | 51.13940 | -0.26538 | 2292 ft | 209 kts | 252° |
| 2026-04-16 03:13 | 51.13861 | -0.28757 | 2176 ft | 199 kts | 278° |
| 2026-04-16 03:13 | 51.14424 | -0.30720 | 2015 ft | 193 kts | 294° |
| 2026-04-16 03:13 | 51.15123 | -0.32500 | 1838 ft | 188 kts | 294° |
| 2026-04-16 03:14 | 51.15971 | -0.34123 | 1683 ft | 199 kts | 316° |
| 2026-04-16 03:14 | 51.17268 | -0.35009 | 1593 ft | 210 kts | 342° |
| 2026-04-16 03:14 | 51.18751 | -0.34809 | 1452 ft | 223 kts | 15° |
| 2026-04-16 03:14 | 51.20043 | -0.33415 | 1282 ft | 229 kts | 51° |
| 2026-04-16 03:15 | 51.20686 | -0.31186 | 1246 ft | 217 kts | 83° |
| 2026-04-16 03:15 | 51.20579 | -0.28880 | 1473 ft | 205 kts | 114° |
| 2026-04-16 03:15 | 51.20021 | -0.26699 | 1863 ft | 218 kts | 118° |
| 2026-04-16 03:15 | 51.19880 | -0.24242 | 2198 ft | 232 kts | 84° |
| 2026-04-16 03:16 | 51.20183 | -0.21708 | 2589 ft | 233 kts | 82° |
| 2026-04-16 03:16 | 51.20489 | -0.19155 | 2969 ft | 236 kts | 81° |
| 2026-04-16 03:16 | 51.20826 | -0.16592 | 3371 ft | 236 kts | 80° |
| 2026-04-16 03:16 | 51.21165 | -0.14032 | 3774 ft | 237 kts | 80° |
| 2026-04-16 03:17 | 51.21504 | -0.11456 | 4175 ft | 238 kts | 80° |
| 2026-04-16 03:17 | 51.21842 | -0.08869 | 4587 ft | 240 kts | 80° |
| 2026-04-16 03:17 | 51.22185 | -0.06242 | 5011 ft | 246 kts | 79° |
| 2026-04-16 03:17 | 51.22540 | -0.03515 | 5129 ft | 252 kts | 79° |
| 2026-04-16 03:18 | 51.22891 | -0.00840 | 5115 ft | 245 kts | 79° |
| 2026-04-16 03:18 | 51.23236 | 0.01813 | 4939 ft | 241 kts | 79° |
| 2026-04-16 03:18 | 51.23574 | 0.04424 | 4918 ft | 242 kts | 79° |
| 2026-04-16 03:18 | 51.23915 | 0.07062 | 4893 ft | 244 kts | 79° |
| 2026-04-16 03:19 | 51.24255 | 0.09708 | 4864 ft | 243 kts | 79° |
| 2026-04-16 03:19 | 51.24597 | 0.12340 | 4839 ft | 242 kts | 79° |
| 2026-04-16 03:19 | 51.24937 | 0.14973 | 4811 ft | 242 kts | 79° |
| 2026-04-16 03:19 | 51.25271 | 0.17607 | 4786 ft | 242 kts | 79° |
| 2026-04-16 03:20 | 51.25478 | 0.20260 | 4742 ft | 241 kts | 95° |
| 2026-04-16 03:20 | 51.25249 | 0.22983 | 5556 ft | 250 kts | 101° |
| 2026-04-16 03:20 | 51.25042 | 0.25786 | 5856 ft | 259 kts | 99° |
| 2026-04-16 03:20 | 51.24860 | 0.28589 | 5692 ft | 247 kts | 99° |
| 2026-04-16 03:21 | 51.24664 | 0.31244 | 5640 ft | 237 kts | 100° |
| 2026-04-16 03:21 | 51.24457 | 0.33870 | 5626 ft | 241 kts | 100° |
| 2026-04-16 03:21 | 51.24252 | 0.36535 | 5633 ft | 243 kts | 100° |
| 2026-04-16 03:21 | 51.24050 | 0.39213 | 5639 ft | 244 kts | 100° |
| 2026-04-16 03:22 | 51.23845 | 0.41892 | 5638 ft | 242 kts | 100° |
| 2026-04-16 03:22 | 51.23642 | 0.44551 | 5627 ft | 242 kts | 100° |
| 2026-04-16 03:22 | 51.23439 | 0.47225 | 5640 ft | 242 kts | 100° |
| 2026-04-16 03:22 | 51.23231 | 0.49878 | 5630 ft | 241 kts | 100° |
| 2026-04-16 03:23 | 51.23016 | 0.52626 | 6490 ft | 250 kts | 100° |
| 2026-04-16 03:23 | 51.22804 | 0.55387 | 7958 ft | 251 kts | 101° |
| 2026-04-16 03:23 | 51.22590 | 0.58162 | 9494 ft | 253 kts | 101° |
| 2026-04-16 03:23 | 51.22371 | 0.60956 | 10917 ft | 255 kts | 101° |
| 2026-04-16 03:24 | 51.22148 | 0.63788 | 12270 ft | 261 kts | 102° |
| 2026-04-16 03:24 | 51.21918 | 0.66702 | 13542 ft | 268 kts | 101° |
| 2026-04-16 03:24 | 51.21683 | 0.69692 | 14660 ft | 275 kts | 101° |
| 2026-04-16 03:24 | 51.21441 | 0.72759 | 15772 ft | 282 kts | 101° |
| 2026-04-16 03:25 | 51.21191 | 0.75901 | 16871 ft | 289 kts | 101° |
| 2026-04-16 03:25 | 51.20935 | 0.79114 | 17942 ft | 296 kts | 101° |
| 2026-04-16 03:25 | 51.20672 | 0.82401 | 18852 ft | 302 kts | 101° |
| 2026-04-16 03:25 | 51.20405 | 0.85746 | 19707 ft | 306 kts | 101° |
| 2026-04-16 03:26 | 51.20135 | 0.89101 | 20499 ft | 311 kts | 101° |
| 2026-04-16 03:26 | 51.19852 | 0.92587 | 21280 ft | 316 kts | 101° |
| 2026-04-16 03:26 | 51.19569 | 0.96094 | 22125 ft | 320 kts | 100° |
| 2026-04-16 03:26 | 51.19282 | 0.99623 | 22947 ft | 323 kts | 100° |
| 2026-04-16 03:27 | 51.18989 | 1.03200 | 23687 ft | 328 kts | 100° |
| 2026-04-16 03:27 | 51.18695 | 1.06781 | 24322 ft | 332 kts | 100° |
| 2026-04-16 03:27 | 51.18393 | 1.10454 | 24946 ft | 337 kts | 100° |
| 2026-04-16 03:27 | 51.18085 | 1.14174 | 25578 ft | 341 kts | 100° |
| 2026-04-16 03:28 | 51.17770 | 1.17943 | 26202 ft | 345 kts | 99° |
| 2026-04-16 03:28 | 51.17455 | 1.21761 | 26813 ft | 350 kts | 99° |
| 2026-04-16 03:28 | 51.17138 | 1.25628 | 27420 ft | 354 kts | 99° |
| 2026-04-16 03:28 | 51.16804 | 1.29540 | 28014 ft | 359 kts | 99° |
| 2026-04-16 03:29 | 51.16467 | 1.33498 | 28604 ft | 363 kts | 99° |
| 2026-04-16 03:29 | 51.16174 | 1.37520 | 29178 ft | 367 kts | 95° |
| 2026-04-16 03:29 | 51.15993 | 1.41601 | 29749 ft | 372 kts | 94° |
| 2026-04-16 03:29 | 51.15805 | 1.45726 | 30339 ft | 374 kts | 95° |
| 2026-04-16 03:30 | 51.15601 | 1.49869 | 30817 ft | 377 kts | 95° |
| 2026-04-16 03:30 | 51.15395 | 1.54051 | 31284 ft | 380 kts | 95° |
| 2026-04-16 03:30 | 51.15191 | 1.58270 | 31738 ft | 383 kts | 95° |
| 2026-04-16 03:30 | 51.14985 | 1.62521 | 32175 ft | 386 kts | 95° |
| 2026-04-16 03:31 | 51.14773 | 1.66799 | 32599 ft | 389 kts | 95° |
| 2026-04-16 03:31 | 51.14557 | 1.71114 | 33010 ft | 392 kts | 95° |
| 2026-04-16 03:31 | 51.14340 | 1.75455 | 33405 ft | 395 kts | 95° |
| 2026-04-16 03:31 | 51.14119 | 1.79827 | 33786 ft | 397 kts | 95° |
| 2026-04-16 03:32 | 51.13895 | 1.84230 | 34153 ft | 400 kts | 95° |
| 2026-04-16 03:32 | 51.13668 | 1.88654 | 34470 ft | 402 kts | 95° |
| 2026-04-16 03:34 | 51.11877 | 2.22472 | 35285 ft | 493 kts | 95° |
| 2026-04-16 03:34 | 51.11581 | 2.27903 | 35882 ft | 492 kts | 95° |
| 2026-04-16 03:34 | 51.11283 | 2.33312 | 36546 ft | 490 kts | 96° |
| 2026-04-16 03:34 | 51.10983 | 2.38691 | 37171 ft | 488 kts | 96° |
| 2026-04-16 03:35 | 51.10681 | 2.44047 | 37887 ft | 484 kts | 96° |
| 2026-04-16 03:35 | 51.10381 | 2.49366 | 38481 ft | 482 kts | 96° |
| 2026-04-16 03:35 | 51.10080 | 2.54678 | 39002 ft | 481 kts | 96° |
| 2026-04-16 03:35 | 51.09776 | 2.59968 | 39430 ft | 480 kts | 96° |
| 2026-04-16 03:36 | 51.09558 | 2.63470 | 39705 ft | 479 kts | 98° |
| 2026-04-16 03:36 | 51.08850 | 2.68696 | 40099 ft | 476 kts | 108° |
| 2026-04-16 03:36 | 51.07920 | 2.73739 | 40497 ft | 475 kts | 108° |
| 2026-04-16 03:36 | 51.07005 | 2.78775 | 40868 ft | 474 kts | 108° |
| 2026-04-16 03:37 | 51.06102 | 2.83810 | 41226 ft | 473 kts | 108° |
| 2026-04-16 03:37 | 51.05190 | 2.88837 | 41597 ft | 472 kts | 108° |
| 2026-04-16 03:37 | 51.04280 | 2.93774 | 41942 ft | 471 kts | 108° |
| 2026-04-16 03:37 | 51.03361 | 2.98763 | 42275 ft | 471 kts | 108° |
| 2026-04-16 03:38 | 51.02448 | 3.03751 | 42598 ft | 470 kts | 108° |
| 2026-04-16 03:38 | 51.01533 | 3.08735 | 42919 ft | 469 kts | 108° |
| 2026-04-16 03:38 | 51.00613 | 3.13703 | 43222 ft | 469 kts | 109° |
| 2026-04-16 03:38 | 50.99693 | 3.18662 | 43523 ft | 468 kts | 109° |
| 2026-04-16 03:39 | 50.98774 | 3.23616 | 43817 ft | 468 kts | 109° |
| 2026-04-16 03:39 | 50.97853 | 3.28565 | 44087 ft | 467 kts | 109° |
| 2026-04-16 03:39 | 50.96929 | 3.33507 | 44343 ft | 467 kts | 109° |
| 2026-04-16 03:39 | 50.96004 | 3.38443 | 44597 ft | 467 kts | 109° |
| 2026-04-16 03:40 | 50.95078 | 3.43374 | 44854 ft | 466 kts | 109° |
| 2026-04-16 03:40 | 50.94151 | 3.48302 | 45068 ft | 466 kts | 109° |
| 2026-04-16 03:40 | 50.93222 | 3.53231 | 45166 ft | 469 kts | 109° |
| 2026-04-16 03:41 | 50.91328 | 3.63223 | 45165 ft | 478 kts | 109° |
| 2026-04-16 03:41 | 50.89391 | 3.73389 | 45184 ft | 486 kts | 109° |
| 2026-04-16 03:42 | 50.87412 | 3.83717 | 45191 ft | 494 kts | 109° |
| 2026-04-16 03:42 | 50.85394 | 3.94209 | 45191 ft | 502 kts | 109° |
| 2026-04-16 03:43 | 50.83334 | 4.04840 | 45189 ft | 509 kts | 109° |
| 2026-04-16 03:43 | 50.82288 | 4.10221 | 45192 ft | 513 kts | 109° |